Hidden Valley, Valles Caldera, New Mexico Weather observations

Data are for 10 minute period ending at time listed.
 Day   Time   Solar   Ave.   Ave.  Ave.  Vector  Max.   Baro.   Total    
  of    of     Rad.   Air    Rel.  Wind   Wind   Wind  Press.  Precip.   
Year   Day            Temp.  Hum.  Speed  Dir.   Gust                    
2015   (MST)  Kw/m2    F      %     mph   deg.    mph    mb.     in.     
-------------------------------------------------------------------------
 242    5:30   0.00   34.6   100    0.3   182     1.2   753.4    0.00 
 242    5:40   0.00   34.0   100    0.3    43     0.7   753.4    0.00 
 242    5:50   0.01   33.9   100    0.2    64     0.8   753.4    0.00 
 242    6:00   0.01   33.9   100    0.3   321     1.0   753.5    0.00 
 242    6:10   0.05   34.2   100    0.0    76     0.3   753.6    0.00 
 242    6:20   0.10   35.1   100    0.2   222     1.2   753.7    0.00 
 242    6:30   0.14   37.4   100    0.1   173     0.8   753.8    0.00 
 242    6:40   0.17   39.8   100    0.0    28     0.5   753.8    0.00 
 242    6:50   0.21   41.9   100    0.2     8     0.7   753.8    0.00 
 242    7:00   0.24   44.6    97    0.1    35     0.4   753.8    0.00 
 242    7:10   0.28   47.3    86    0.2   111     0.6   753.7    0.00 
 242    7:20   0.31   49.3    83    0.2    55     0.8   753.7    0.00 
 242    7:30   100.00  99999.0   99999  99999.0   99999   99999.0   99999.0   99999.00 
 242    7:40   100.00  99999.0   99999  99999.0   99999   99999.0   99999.0   99999.00 
 242    7:50   100.00  99999.0   99999  99999.0   99999   99999.0   99999.0   99999.00 
 242    8:00   100.00  99999.0   99999  99999.0   99999   99999.0   99999.0   99999.00 
 242    8:10   100.00  99999.0   99999  99999.0   99999   99999.0   99999.0   99999.00 
 242    8:20   100.00  99999.0   99999  99999.0   99999   99999.0   99999.0   99999.00 
 242    8:30   0.55   60.8    64    0.7    34     1.7   753.5    0.00 
 242    8:40   0.58   61.7    66    0.6    32     1.3   753.5    0.00 
 242    8:50   0.61   63.9    63    0.4    66     1.0   753.5    0.00 
 242    9:00   0.64   65.2    61    1.0     6     2.3   753.5    0.00 
 242    9:10   0.67   66.6    56    1.5   197     3.9   753.5    0.00 
 242    9:20   0.70   67.1    53    2.6   177     4.2   753.5    0.00 
 242    9:30   0.73   67.5    52    3.3   177     6.2   753.4    0.00 
 242    9:40   0.76   67.9    52    2.8   182     6.1   753.5    0.00 
 242    9:50   0.81   69.0    50    2.1   201     4.8   753.5    0.00 
 242   10:00   0.85   69.4    48    2.6   208     7.1   753.5    0.00 
 242   10:10   0.89   69.3    47    3.1   194     5.7   753.4    0.00 
 242   10:20   0.88   70.1    44    3.4   217     6.4   753.4    0.00 
 242   10:30   0.83   69.5    46    2.7   222     5.5   753.3    0.00 
 242   10:40   0.96   70.8    46    2.6   177     5.0   753.2    0.00 
 242   10:50   0.90   70.6    46    2.8   186     5.7   753.2    0.00 
 242   11:00   0.46   69.0    46    3.1   189     5.1   753.1    0.00 
 242   11:10   0.25   68.5    47    2.4   191     4.9   753.1    0.00 
 242   11:20   0.24   67.9    46    1.8   160     4.2   753.0    0.00 
 242   11:30   0.47   68.7    46    1.8   134     3.3   752.9    0.00 
 242   11:40   0.32   69.5    44    1.5   177     3.3   752.8    0.00 
 242   11:50   0.23   68.9    48    1.6   100     3.6   752.7    0.00 
 242   12:00   0.18   66.3    58    2.3    79     3.6   752.8    0.00 
 242   12:10   0.18   65.4    59    2.9    44     4.6   752.8    0.00 
 242   12:20   0.12   63.7    58    2.8    86     5.0   752.9    0.00 
 242   12:30   0.09   63.0    59    2.3    47     6.0   753.0    0.00 
 242   12:40   0.03   59.5    69    2.5   338     5.3   753.3    0.01 
 242   12:50   0.03   55.3    78    2.0    30     3.7   753.3    0.04 
 242   13:00   0.02   53.2    84    2.1   227     4.1   753.3    0.03 
 242   13:10   0.02   52.9    87    2.1   213     3.3   753.3    0.05 
 242   13:20   0.02   52.0    90    2.7   220     4.5   753.2    0.01 
 242   13:30   0.03   52.0    90    2.9   227     4.2   753.2    0.00 
 242   13:40   0.03   52.4    89    1.9   219     3.9   753.0    0.01 
 242   13:50   0.04   52.3    90    1.4   303     4.5   752.9    0.00 
 242   14:00   0.04   52.7    88    0.7   317     2.3   752.8    0.00 
 242   14:10   0.06   52.8    89    1.9    34     4.0   752.8    0.00 
 242   14:20   0.11   53.0    89    1.5   328     3.1   752.4    0.00 
 242   14:30   100.00  99999.0   99999  99999.0   99999   99999.0   99999.0   99999.00 
 242   14:40   100.00  99999.0   99999  99999.0   99999   99999.0   99999.0   99999.00 
 242   14:50   100.00  99999.0   99999  99999.0   99999   99999.0   99999.0   99999.00 
 242   15:00   100.00  99999.0   99999  99999.0   99999   99999.0   99999.0   99999.00 
 242   15:10   100.00  99999.0   99999  99999.0   99999   99999.0   99999.0   99999.00 
 242   15:20   100.00  99999.0   99999  99999.0   99999   99999.0   99999.0   99999.00 
 242   15:30   0.65   65.9    59    1.3    61     2.1   751.3    0.00 
 242   15:40   0.59   67.1    56    0.8    23     1.9   751.1    0.00 
 242   15:50   0.57   68.1    56    0.8   292     1.8   751.0    0.00 
 242   16:00   0.53   68.1    55    0.9   292     1.6   750.9    0.00 
 242   16:10   0.50   69.6    51    0.5   278     1.4   750.8    0.00 
 242   16:20   0.47   69.5    53    0.9   283     1.6   750.7    0.00 
 242   16:30   0.43   69.5    56    0.7   299     1.4   750.6    0.00 
 242   16:40   0.39   69.1    55    0.7   277     1.9   750.5    0.00 
 242   16:50   0.35   69.0    60    1.0   253     1.3   750.4    0.00 
 242   17:00   0.30   67.8    64    1.0   248     1.9   750.4    0.00 
 242   17:10   0.28   66.5    65    1.3   249     2.4   750.4    0.00 
 242   17:20   0.25   65.6    65    0.8   269     1.7   750.3    0.00 
 242   17:30   0.20   63.5    68    1.4   252     2.4   750.2    0.00 
 242   17:40   0.04   60.2    73    0.4   270     1.6   750.2    0.00 
 242   17:50   0.03   59.0    74    0.8   233     1.2   750.1    0.00 
 242   18:00   0.02   58.1    74    0.4   218     1.1   750.1    0.00 
 242   18:10   0.02   56.8    77    0.3   247     1.1   750.1    0.00 
 242   18:20   0.01   56.1    77    0.7   219     1.3   750.1    0.00 
 242   18:30   0.01   54.6    81    1.0   232     2.0   750.2    0.00 
 242   18:40   0.00   54.2    82    0.4   239     1.3   750.3    0.00 
 242   18:50   0.00   52.4    85    0.5   334     0.8   750.4    0.00 
 242   19:00   0.00   49.9    90    0.5    46     1.2   750.5    0.00 
 242   19:10   0.00   49.1    93    0.5    93     1.1   750.6    0.00 
 242   19:20   0.00   48.4    95    0.0     0     0.0   750.7    0.00 
 242   19:30   0.00   48.0    96    0.0     0     0.0   750.7    0.00 
 242   19:40   0.00   46.9    97    0.2     8     0.8   750.8    0.00 
 242   19:50   0.00   45.5    97    0.8     9     1.3   750.9    0.00 
 242   20:00   0.00   44.4    98    0.4   117     0.9   751.1    0.00 
 242   20:10   0.00   44.7    99    1.0   288     1.6   751.2    0.00 
 242   20:20   0.00   45.8    99    1.0   192     1.5   751.1    0.00 
 242   20:30   0.00   46.8   100    1.0   196     1.7   751.1    0.00 
 242   20:40   0.00   46.4    98    1.1    47     2.1   751.1    0.00 
 242   20:50   0.00   44.9    97    0.3   137     0.9   751.1    0.00 
 242   21:00   0.00   44.5    98    0.8   342     1.3   751.1    0.00 
 242   21:10   0.00   44.0    98    0.9   198     1.9   751.0    0.00 
 242   21:20   0.00   45.9    99    2.1   265     4.4   751.2    0.00 
 242   21:30   0.00   45.9    98    0.8    80     1.8   751.3    0.00 
 242   21:40   0.00   46.8    95    0.9   204     2.0   751.4    0.00 
 242   21:50   0.00   49.5    89    1.7   186     2.7   751.3    0.00 
 242   22:00   0.00   51.5    84    1.9   201     2.6   751.3    0.00 
 242   22:10   0.00   51.2    83    1.2   252     2.1   751.3    0.00 
 242   22:20   0.00   49.9    86    1.1   270     1.8   751.3    0.00 
 242   22:30   0.00   48.8    88    0.8   162     2.4   751.3    0.00 
 242   22:40   0.00   47.9    90    0.7   154     2.1   751.3    0.00 
 242   22:50   0.00   47.5    91    0.3   202     1.1   751.4    0.00 
 242   23:00   0.00   46.7    93    0.9   182     1.8   751.3    0.00 
 242   23:10   0.00   46.7    95    0.8   177     2.3   751.3    0.00 
 242   23:20   0.00   47.6    92    1.1   217     2.7   751.5    0.00 
 242   23:30   0.00   47.5    91    0.5   245     1.4   751.4    0.00 
 242   23:40   0.00   46.3    92    0.4   279     1.3   751.4    0.00 
 242   23:50   0.00   45.4    95    0.5   174     1.6   751.5    0.00 
 243    0:00   0.00   45.2    97    0.2   196     1.0   751.5    0.00 
 243    0:10   0.00   44.9    97    0.5   170     1.6   751.4    0.00 
 243    0:20   0.00   44.8    97    0.2   206     0.9   751.4    0.00 
 243    0:30   0.00   44.1    96    0.3   118     1.0   751.3    0.00 
 243    0:40   0.00   43.1    97    0.2   202     0.9   751.2    0.00 
 243    0:50   0.00   44.0    99    0.2   222     0.8   751.2    0.00 
 243    1:00   0.00   43.5    97    0.0     0     0.0   751.3    0.00 
 243    1:10   0.00   42.1    97    0.0   279     0.3   751.2    0.00 
 243    1:20   0.00   41.1    98    0.0     0     0.0   751.1    0.00 
 243    1:30   0.00   40.5    98    0.0   223     0.4   751.0    0.00 
 243    1:40   0.00   40.1    99    0.0   284     0.2   751.0    0.00 
 243    1:50   0.00   39.7    99    0.2   338     0.8   750.9    0.00 
 243    2:00   0.00   39.5    99    0.3    19     0.8   750.9    0.00 
 243    2:10   0.00   39.7   100    0.2   227     1.0   750.9    0.00 
 243    2:20   0.00   39.7   100    0.0   256     0.3   750.8    0.00 
 243    2:30   0.00   39.0   100    0.0    22     0.4   750.8    0.00 
 243    2:40   0.00   38.4   100    0.2    13     0.8   750.8    0.00 
 243    2:50   0.00   38.6   100    0.3   190     0.9   750.9    0.00 
 243    3:00   0.00   37.8   100    0.2   184     1.4   750.9    0.00 
 243    3:10   0.00   37.0   100    0.8    21     1.6   750.9    0.00 
 243    3:20   0.00   37.2   100    0.9   110     1.5   751.0    0.00 
 243    3:30   0.00   38.7   100    0.3   192     1.0   751.0    0.00 
 243    3:40   0.00   38.8   100    0.2   162     0.9   751.1    0.00 
 243    3:50   0.00   38.9   100    0.3   193     0.9   751.1    0.00 
 243    4:00   0.00   40.0   100    0.4   141     1.4   751.1    0.00 
 243    4:10   0.00   39.4   100    0.1    12     1.0   751.3    0.00 
 243    4:20   0.00   39.5   100    0.4   331     1.2   751.3    0.00 
 243    4:30   0.00   39.6   100    0.3   341     0.7   751.3    0.00 
 243    4:40   0.00   39.3   100    0.2   358     0.7   751.4    0.00 
 243    4:50   0.00   39.3   100    0.4   163     0.8   751.4    0.00 
 243    5:00   0.00   39.3   100    0.2   172     0.9   751.5    0.00 
 243    5:10   0.00   39.1   100    0.0   306     0.4   751.5    0.00 
 243    5:20   0.00   39.0   100    0.1    58     0.5   751.5    0.00 

Return to Hidden Valley, Valles Caldera graphs page.


Western Regional Climate Center,wrcc@dri.edu